createdAt,value
2023-03-15T00:00:42.401Z,96579.31
2023-03-15T00:02:46.784Z,96581.94
2023-03-15T00:04:52.258Z,96581.94
2023-03-15T00:06:56.634Z,96584.56
2023-03-15T00:09:02.235Z,96579.31
2023-03-15T00:11:07.044Z,96594.19
2023-03-15T00:13:11.829Z,96595.97
2023-03-15T00:15:16.372Z,96604.44
2023-03-15T00:17:22.769Z,96619.94
2023-03-15T00:19:27.236Z,96618.13
2023-03-15T00:21:31.541Z,96599.88
2023-03-15T00:23:35.696Z,96600.06
2023-03-15T00:25:41.424Z,96604.44
2023-03-15T00:27:45.546Z,96614.88
2023-03-15T00:29:50.394Z,96620.94
2023-03-15T00:31:54.899Z,96622.72
2023-03-15T00:33:59.469Z,96633.00
2023-03-15T00:36:07.871Z,96635.59
2023-03-15T00:38:13.627Z,96642.63
2023-03-15T00:40:19.577Z,96651.25
2023-03-15T00:42:27.565Z,96653.72
2023-03-15T00:44:31.996Z,96653.06
2023-03-15T00:46:36.185Z,96649.47
2023-03-15T00:48:40.540Z,96652.91
2023-03-15T00:50:45.604Z,96656.50
2023-03-15T00:52:49.767Z,96667.72
2023-03-15T00:54:54.032Z,96669.53
2023-03-15T00:56:58.776Z,96666.94
2023-03-15T00:59:04.377Z,96663.50
2023-03-15T01:01:09.354Z,96661.56
2023-03-15T01:03:15.908Z,96672.81
2023-03-15T01:05:20.173Z,96685.03
2023-03-15T01:07:24.247Z,96689.47
2023-03-15T01:09:28.581Z,96699.06
2023-03-15T01:11:32.829Z,96697.44
2023-03-15T01:13:37.203Z,96700.88
2023-03-15T01:15:47.403Z,96701.69
2023-03-15T01:17:51.500Z,96706.91
2023-03-15T01:19:55.618Z,96712.94
2023-03-15T01:21:59.753Z,96720.78
2023-03-15T01:24:04.284Z,96731.03
2023-03-15T01:26:09.857Z,96726.81
2023-03-15T01:28:14.438Z,96732.84
2023-03-15T01:30:19.062Z,96732.84
2023-03-15T01:32:24.722Z,96732.84
2023-03-15T01:34:28.975Z,96742.28
2023-03-15T01:36:33.206Z,96735.47
2023-03-15T01:38:37.262Z,96736.25
2023-03-15T01:40:45.145Z,96740.84
2023-03-15T01:42:55.487Z,96748.50
2023-03-15T01:45:01.060Z,96743.28
2023-03-15T01:47:05.967Z,96744.09
2023-03-15T01:49:16.063Z,96748.50
2023-03-15T01:51:24.531Z,96745.09
2023-03-15T01:53:28.900Z,96750.31
2023-03-15T01:55:33.526Z,96751.94
2023-03-15T01:57:46.185Z,96754.53
2023-03-15T01:59:52.625Z,96758.81
2023-03-15T02:01:56.575Z,96756.19
2023-03-15T02:04:03.943Z,96764.16
2023-03-15T02:06:18.101Z,96759.59
2023-03-15T02:08:29.817Z,96766.63
2023-03-15T02:10:36.585Z,96770.19
2023-03-15T02:12:45.386Z,96766.78
2023-03-15T02:14:49.284Z,96771.84
2023-03-15T02:16:54.421Z,96771.00
2023-03-15T02:18:58.487Z,96776.22
2023-03-15T02:21:09.611Z,96776.22
2023-03-15T02:23:15.805Z,96781.31
2023-03-15T02:25:23.519Z,96781.31
2023-03-15T02:27:30.505Z,96783.09
2023-03-15T02:29:35.443Z,96775.28
2023-03-15T02:31:39.307Z,96789.13
2023-03-15T02:33:44.935Z,96790.78
2023-03-15T02:35:48.802Z,96783.91
2023-03-15T02:37:53.633Z,96790.94
2023-03-15T02:39:57.438Z,96789.94
2023-03-15T02:42:01.828Z,96791.91
2023-03-15T02:44:09.514Z,96792.41
2023-03-15T02:46:13.393Z,96791.59
2023-03-15T02:48:17.336Z,96790.78
2023-03-15T02:50:21.291Z,96793.38
2023-03-15T02:52:26.199Z,96800.22
2023-03-15T02:54:30.020Z,96802.03
2023-03-15T02:56:34.054Z,96804.66
2023-03-15T02:58:38.856Z,96801.22
2023-03-15T03:00:44.053Z,96800.38
2023-03-15T03:02:49.103Z,96809.88
2023-03-15T03:04:53.593Z,96808.06
2023-03-15T03:06:57.386Z,96809.88
2023-03-15T03:09:07.933Z,96814.28
2023-03-15T03:11:11.899Z,96814.94
2023-03-15T03:13:15.779Z,96818.34
2023-03-15T03:15:19.643Z,96824.53
2023-03-15T03:17:24.886Z,96822.75
2023-03-15T03:19:28.777Z,96818.34
2023-03-15T03:21:33.321Z,96826.19
2023-03-15T03:23:37.439Z,96834.97
2023-03-15T03:25:41.225Z,96831.41
2023-03-15T03:27:45.254Z,96837.44
2023-03-15T03:29:50.621Z,96834.81
2023-03-15T03:31:54.470Z,96837.44
2023-03-15T03:34:00.908Z,96844.47
2023-03-15T03:36:07.758Z,96840.06
2023-03-15T03:38:12.820Z,96843.47
2023-03-15T03:40:19.896Z,96846.09
2023-03-15T03:42:23.948Z,96845.13
2023-03-15T03:44:27.981Z,96842.66
2023-03-15T03:46:32.067Z,96845.13
2023-03-15T03:48:36.493Z,96842.53
2023-03-15T03:50:41.676Z,96851.81
2023-03-15T03:52:45.468Z,96858.84
2023-03-15T03:54:56.324Z,96860.63
2023-03-15T03:57:00.218Z,96864.06
2023-03-15T03:59:08.364Z,96865.84
2023-03-15T04:01:27.005Z,96867.47
2023-03-15T04:03:31.984Z,96872.69
2023-03-15T04:05:44.207Z,96872.69
2023-03-15T04:07:53.021Z,96870.59
2023-03-15T04:09:56.916Z,96879.06
2023-03-15T04:12:00.762Z,96870.59
2023-03-15T04:14:04.581Z,96874.97
2023-03-15T04:16:09.337Z,96874.16
2023-03-15T04:18:26.682Z,96881.34
2023-03-15T04:20:34.497Z,96883.00
2023-03-15T04:22:40.619Z,96883.13
2023-03-15T04:24:56.536Z,96881.34
2023-03-15T04:27:14.422Z,96891.28
2023-03-15T04:29:30.473Z,96890.81
2023-03-15T04:31:48.066Z,96894.41
2023-03-15T04:34:00.102Z,96905.69
2023-03-15T04:36:30.674Z,96903.06
2023-03-15T04:39:04.209Z,96913.34
2023-03-15T04:41:21.230Z,96909.75
2023-03-15T04:43:42.330Z,96912.53
2023-03-15T04:46:03.002Z,96913.19
2023-03-15T04:48:31.033Z,96916.75
2023-03-15T04:50:46.240Z,96928.03
2023-03-15T04:53:02.662Z,96921.16
2023-03-15T04:55:24.574Z,96921.16
2023-03-15T04:57:43.302Z,96928.03
2023-03-15T05:00:12.078Z,96930.66
2023-03-15T05:02:36.024Z,96929.66
2023-03-15T05:04:51.517Z,96927.19
2023-03-15T05:07:03.648Z,96932.28
2023-03-15T05:09:26.053Z,96945.84
2023-03-15T05:11:49.668Z,96936.69
2023-03-15T05:14:28.741Z,96945.97
2023-03-15T05:16:48.228Z,96941.75
2023-03-15T05:19:12.299Z,96951.22
2023-03-15T05:21:24.040Z,96954.63
2023-03-15T05:23:43.318Z,96952.84
2023-03-15T05:26:03.719Z,96958.75
2023-03-15T05:28:36.700Z,96961.34
2023-03-15T05:31:02.527Z,96967.38
2023-03-15T05:33:40.515Z,96973.56
2023-03-15T05:36:14.325Z,96974.41
2023-03-15T05:38:36.873Z,96975.22
2023-03-15T05:40:51.622Z,96980.44
2023-03-15T05:43:16.412Z,96983.06
2023-03-15T05:45:40.092Z,96991.69
2023-03-15T05:48:09.711Z,96991.56
2023-03-15T05:50:33.773Z,96985.50
2023-03-15T05:52:57.005Z,96991.69
2023-03-15T05:55:22.891Z,96994.16
2023-03-15T05:57:34.775Z,97001.34
2023-03-15T05:59:57.401Z,96999.53
2023-03-15T06:02:21.389Z,96995.97
2023-03-15T06:04:48.050Z,96998.38
2023-03-15T06:06:55.358Z,97000.19
2023-03-15T06:08:59.607Z,96999.72
2023-03-15T06:11:03.483Z,97003.31
2023-03-15T06:13:08.090Z,97002.66
2023-03-15T06:15:12.651Z,96999.91
2023-03-15T06:17:16.696Z,97004.13
2023-03-15T06:19:23.497Z,97007.53
2023-03-15T06:21:30.187Z,97006.75
2023-03-15T06:23:34.035Z,97019.66
2023-03-15T06:25:37.881Z,97012.78
2023-03-15T06:27:41.826Z,97020.59
2023-03-15T06:29:46.268Z,97018.81
2023-03-15T06:31:50.534Z,97026.63
2023-03-15T06:33:55.306Z,97026.63
2023-03-15T06:36:00.594Z,97028.94
2023-03-15T06:38:05.940Z,97028.94
2023-03-15T06:40:11.959Z,97029.75
2023-03-15T06:42:16.439Z,97034.03
2023-03-15T06:44:21.130Z,97026.19
2023-03-15T06:46:30.234Z,97031.41
2023-03-15T06:48:34.511Z,97028.81
2023-03-15T06:50:46.995Z,97034.84
2023-03-15T06:52:52.837Z,97034.03
2023-03-15T06:54:56.966Z,97037.31
2023-03-15T06:57:00.968Z,97038.25
2023-03-15T06:59:04.854Z,97040.88
2023-03-15T07:01:08.734Z,97041.69
2023-03-15T07:03:12.546Z,97038.25
2023-03-15T07:05:16.589Z,97041.53
2023-03-15T07:07:20.357Z,97039.06
2023-03-15T07:09:25.695Z,97041.53
2023-03-15T07:11:29.552Z,97047.41
2023-03-15T07:13:33.409Z,97051.03
2023-03-15T07:15:37.774Z,97051.03
2023-03-15T07:17:42.022Z,97057.88
2023-03-15T07:19:55.838Z,97059.66
2023-03-15T07:22:00.533Z,97056.91
2023-03-15T07:24:04.717Z,97056.91
2023-03-15T07:26:09.949Z,97062.13
2023-03-15T07:28:14.126Z,97062.94
2023-03-15T07:30:18.775Z,97061.94
2023-03-15T07:32:22.653Z,97063.59
2023-03-15T07:34:26.676Z,97061.47
2023-03-15T07:36:32.173Z,97061.97
2023-03-15T07:38:36.360Z,97064.28
2023-03-15T07:40:40.236Z,97060.84
2023-03-15T07:42:45.854Z,97063.78
2023-03-15T07:44:50.854Z,97066.06
2023-03-15T07:46:55.979Z,97065.78
2023-03-15T07:48:59.847Z,97063.69
2023-03-15T07:51:03.675Z,97064.34
2023-03-15T07:53:07.635Z,97074.31
2023-03-15T07:55:11.719Z,97065.66
2023-03-15T07:57:15.499Z,97071.47
2023-03-15T07:59:20.652Z,97078.06
2023-03-15T08:01:24.494Z,97065.53
2023-03-15T08:03:29.223Z,97070.41
2023-03-15T08:05:33.099Z,97071.09
2023-03-15T08:07:37.212Z,97074.66
2023-03-15T08:09:41.347Z,97076.16
2023-03-15T08:11:45.774Z,97073.69
2023-03-15T08:13:49.675Z,97074.34
2023-03-15T08:15:54.842Z,97082.19
2023-03-15T08:17:59.642Z,97076.97
2023-03-15T08:20:04.315Z,97078.63
2023-03-15T08:22:10.801Z,97082.03
2023-03-15T08:24:15.300Z,97081.22
2023-03-15T08:26:19.168Z,97081.06
2023-03-15T08:28:23.026Z,97083.03
2023-03-15T08:30:28.680Z,97078.78
2023-03-15T08:32:35.402Z,97080.09
2023-03-15T08:34:41.520Z,97079.75
2023-03-15T08:38:46.753Z,97073.53
2023-03-15T08:40:50.583Z,97074.00
2023-03-15T08:42:54.571Z,97076.81
2023-03-15T08:44:59.545Z,97074.19
2023-03-15T08:47:05.104Z,97065.88
2023-03-15T08:49:10.264Z,97076.97
2023-03-15T08:51:14.708Z,97082.50
2023-03-15T08:53:18.701Z,97071.91
2023-03-15T08:55:22.549Z,97069.91
2023-03-15T08:57:26.772Z,97073.38
2023-03-15T08:59:32.800Z,97066.84
2023-03-15T09:01:36.653Z,97074.84
2023-03-15T09:03:42.346Z,97068.44
2023-03-15T09:05:47.628Z,97072.38
2023-03-15T09:07:52.970Z,97078.28
2023-03-15T09:19:22.756Z,97077.44
2023-03-15T09:21:28.600Z,97084.47
2023-03-15T09:23:32.442Z,97101.78
2023-03-15T09:25:36.931Z,97092.63
2023-03-15T09:27:40.766Z,97101.28
2023-03-15T09:29:44.916Z,97101.47
2023-03-15T09:31:48.742Z,97104.06
2023-03-15T09:33:52.569Z,97099.66
2023-03-15T09:35:56.442Z,97107.97
2023-03-15T09:38:03.707Z,97103.41
2023-03-15T09:40:13.126Z,97103.41
2023-03-15T09:42:19.915Z,97100.00
2023-03-15T09:44:36.611Z,97095.88
2023-03-15T09:46:42.563Z,97096.53
2023-03-15T09:48:51.453Z,97099.31
2023-03-15T09:50:57.100Z,97105.03
2023-03-15T09:53:04.174Z,97108.47
2023-03-15T09:55:12.766Z,97112.06
2023-03-15T09:57:19.130Z,97102.44
2023-03-15T09:59:23.544Z,97116.50
2023-03-15T10:01:31.201Z,97112.03
2023-03-15T10:03:39.672Z,97108.13
2023-03-15T10:05:45.704Z,97115.41
2023-03-15T10:07:49.531Z,97108.47
2023-03-15T10:09:58.359Z,97099.34
2023-03-15T10:12:05.186Z,97092.03
2023-03-15T10:14:19.273Z,97094.38
2023-03-15T10:16:30.500Z,97083.78
2023-03-15T10:18:43.952Z,97085.94
2023-03-15T10:20:51.892Z,97081.50
2023-03-15T10:22:58.057Z,97084.13
2023-03-15T10:25:05.222Z,97079.56
2023-03-15T10:27:16.967Z,97081.69
2023-03-15T10:29:22.472Z,97083.47
2023-03-15T10:31:36.931Z,97083.31
2023-03-15T10:33:45.248Z,97076.75
2023-03-15T10:35:51.024Z,97080.03
2023-03-15T10:37:55.357Z,97076.94
2023-03-15T10:43:00.236Z,97074.34
2023-03-15T10:45:15.571Z,97077.16
2023-03-15T10:47:24.500Z,97078.31
2023-03-15T10:49:35.767Z,97071.78
2023-03-15T10:51:43.256Z,97075.56
2023-03-15T10:53:55.238Z,97067.94
2023-03-15T10:56:02.149Z,97078.41
2023-03-15T10:58:20.664Z,97058.81
2023-03-15T11:00:29.927Z,97059.09
2023-03-15T11:02:33.899Z,97056.66
2023-03-15T11:04:41.585Z,97059.44
2023-03-15T11:06:48.260Z,97064.81
2023-03-15T11:08:52.100Z,97060.56
2023-03-15T11:10:57.563Z,97063.88
2023-03-15T11:13:13.793Z,97064.66
2023-03-15T11:15:17.649Z,97062.50
2023-03-15T11:17:22.974Z,97058.28
2023-03-15T11:19:28.764Z,97053.25
2023-03-15T11:21:34.459Z,97058.16
2023-03-15T11:23:39.485Z,97043.28
2023-03-15T11:25:43.487Z,97040.34
2023-03-15T11:27:51.863Z,97043.47
2023-03-15T11:30:04.297Z,97046.41
2023-03-15T11:32:14.828Z,97051.63
2023-03-15T11:34:26.589Z,97051.78
2023-03-15T11:36:33.747Z,97044.63
2023-03-15T11:38:43.799Z,97039.19
2023-03-15T11:40:49.935Z,97034.44
2023-03-15T11:42:57.108Z,97041.16
2023-03-15T11:45:06.537Z,97036.09
2023-03-15T11:47:15.122Z,97035.94
2023-03-15T11:49:23.853Z,97027.78
2023-03-15T11:51:27.708Z,97015.84
2023-03-15T11:53:36.147Z,97022.53
2023-03-15T11:55:40.050Z,97015.34
2023-03-15T11:58:32.922Z,97019.59
2023-03-15T12:00:52.963Z,97028.75
2023-03-15T12:02:58.373Z,97031.34
2023-03-15T12:05:12.557Z,97023.19
2023-03-15T12:07:46.873Z,97017.97
2023-03-15T12:09:52.414Z,97014.84
2023-03-15T12:11:58.579Z,97015.50
2023-03-15T12:14:06.730Z,97018.78
2023-03-15T12:16:14.411Z,97012.41
2023-03-15T12:18:23.784Z,97018.28
2023-03-15T12:20:34.165Z,97010.78
2023-03-15T12:22:37.974Z,97014.34
2023-03-15T12:24:41.832Z,97016.31
2023-03-15T12:26:46.225Z,97010.78
2023-03-15T12:28:52.759Z,97009.63
2023-03-15T12:30:59.155Z,97010.13
2023-03-15T12:33:04.573Z,97014.34
2023-03-15T12:35:09.879Z,97020.72
2023-03-15T12:37:22.187Z,97011.25
2023-03-15T12:40:02.516Z,97012.72
2023-03-15T12:42:06.525Z,97016.47
2023-03-15T12:44:27.876Z,97007.31
2023-03-15T12:46:57.031Z,97015.47
2023-03-15T12:49:12.281Z,97011.88
2023-03-15T12:51:40.441Z,97018.09
2023-03-15T12:53:49.258Z,97019.59
2023-03-15T12:56:06.211Z,97009.94
2023-03-15T12:58:12.744Z,97008.28
2023-03-15T13:00:18.638Z,97007.44
2023-03-15T13:02:41.653Z,97009.41
2023-03-15T13:04:49.692Z,97003.91
2023-03-15T13:07:14.966Z,96994.09
2023-03-15T13:09:31.479Z,97004.38
2023-03-15T13:11:38.594Z,97003.56
2023-03-15T13:13:56.622Z,97000.47
2023-03-15T13:16:15.417Z,96993.63
2023-03-15T13:18:22.083Z,96994.44
2023-03-15T13:20:46.644Z,96991.00
2023-03-15T13:22:56.484Z,96989.34
2023-03-15T13:25:05.748Z,96991.97
2023-03-15T13:27:15.012Z,96985.63
2023-03-15T13:29:21.108Z,96980.53
2023-03-15T13:31:25.903Z,96987.56
2023-03-15T13:33:31.338Z,96983.00
2023-03-15T13:35:35.303Z,96983.97
2023-03-15T13:37:44.790Z,96985.44
2023-03-15T13:39:57.329Z,96983.94
2023-03-15T13:42:02.242Z,96985.28
2023-03-15T13:44:18.380Z,96987.88
2023-03-15T13:46:24.821Z,96985.13
2023-03-15T13:48:29.945Z,96976.47
2023-03-15T13:50:33.789Z,96987.38
2023-03-15T13:52:37.994Z,96985.78
2023-03-15T13:54:41.885Z,96979.88
2023-03-15T13:56:56.594Z,96980.38
2023-03-15T13:59:02.454Z,96977.13
2023-03-15T14:01:09.342Z,96974.16
2023-03-15T14:03:15.531Z,96977.13
2023-03-15T14:05:27.043Z,96977.59
2023-03-15T14:07:35.578Z,96979.56
2023-03-15T14:09:39.933Z,96982.16
2023-03-15T14:11:44.720Z,96977.13
2023-03-15T14:13:49.929Z,96977.94
2023-03-15T14:15:57.760Z,96982.50
2023-03-15T14:18:04.773Z,96984.78
2023-03-15T14:20:16.223Z,96982.81
2023-03-15T14:22:20.030Z,96981.84
2023-03-15T14:24:31.431Z,96987.91
2023-03-15T14:29:51.143Z,96984.13
2023-03-15T14:32:01.446Z,96980.56
2023-03-15T14:34:10.449Z,96986.25
2023-03-15T14:36:24.379Z,96982.81
2023-03-15T14:38:32.386Z,96979.75
2023-03-15T14:40:37.521Z,96983.81
2023-03-15T14:42:41.476Z,96982.16
2023-03-15T14:44:45.328Z,96990.84
2023-03-15T14:46:49.356Z,96993.47
2023-03-15T14:48:53.199Z,96995.22
2023-03-15T14:50:58.423Z,96988.69
2023-03-15T14:53:02.573Z,96996.72
2023-03-15T14:55:06.991Z,96995.56
2023-03-15T14:57:11.036Z,97003.41
2023-03-15T14:59:14.983Z,96995.91
2023-03-15T15:01:22.296Z,97004.56
2023-03-15T15:03:31.771Z,96999.47
2023-03-15T15:05:36.634Z,97000.28
2023-03-15T15:07:41.993Z,96993.44
2023-03-15T15:09:48.972Z,96995.91
2023-03-15T15:11:53.016Z,96989.34
2023-03-15T15:13:57.717Z,96987.72
2023-03-15T15:16:01.868Z,96986.06
2023-03-15T15:18:05.851Z,96986.25
2023-03-15T15:20:12.463Z,96993.47
2023-03-15T15:22:16.327Z,96982.50
2023-03-15T15:24:22.319Z,96991.97
2023-03-15T15:26:29.743Z,96994.28
2023-03-15T15:28:37.028Z,96986.59
2023-03-15T15:30:41.437Z,96985.44
2023-03-15T15:32:45.795Z,97000.81
2023-03-15T15:34:49.751Z,96996.06
2023-03-15T15:36:53.588Z,96999.97
2023-03-15T15:38:57.442Z,97002.28
2023-03-15T15:41:02.953Z,97002.31
2023-03-15T15:43:06.856Z,96998.81
2023-03-15T15:45:12.862Z,96995.97
2023-03-15T15:47:16.691Z,97000.53
2023-03-15T15:49:20.973Z,97001.72
2023-03-15T15:51:28.137Z,97003.19
2023-03-15T15:53:32.587Z,97002.06
2023-03-15T15:55:39.210Z,97007.63
2023-03-15T15:57:45.183Z,97008.28
2023-03-15T15:59:49.056Z,97006.38
2023-03-15T16:02:00.569Z,97016.16
2023-03-15T16:04:05.315Z,97015.47
2023-03-15T16:06:16.387Z,97012.22
2023-03-15T16:08:22.701Z,97011.09
2023-03-15T16:10:30.177Z,97016.81
2023-03-15T16:12:34.499Z,97017.81
2023-03-15T16:14:39.722Z,97018.28
2023-03-15T16:16:43.579Z,97022.22
2023-03-15T16:18:47.675Z,97026.13
2023-03-15T16:20:52.623Z,97028.09
2023-03-15T16:23:20.315Z,97028.09
2023-03-15T16:25:27.100Z,97036.91
2023-03-15T16:27:31.001Z,97031.38
2023-03-15T16:29:39.442Z,97040.97
2023-03-15T16:31:46.408Z,97039.50
2023-03-15T16:33:50.334Z,97041.47
2023-03-15T16:35:54.243Z,97041.81
2023-03-15T16:37:58.854Z,97044.41
2023-03-15T16:40:04.963Z,97040.34
2023-03-15T16:42:11.923Z,97042.63
2023-03-15T16:44:17.153Z,97051.41
2023-03-15T16:46:22.382Z,97042.78
2023-03-15T16:48:26.614Z,97056.97
2023-03-15T16:50:30.450Z,97062.22
2023-03-15T16:52:34.299Z,97051.59
2023-03-15T16:54:41.452Z,97052.56
2023-03-15T16:56:46.387Z,97054.50
2023-03-15T16:58:50.820Z,97060.88
2023-03-15T17:00:54.651Z,97061.53
2023-03-15T17:03:01.523Z,97065.94
2023-03-15T17:05:06.177Z,97068.19
2023-03-15T17:07:10.904Z,97070.50
2023-03-15T17:09:16.717Z,97065.44
2023-03-15T17:11:20.707Z,97072.31
2023-03-15T17:13:27.696Z,97074.41
2023-03-15T17:15:31.564Z,97080.59
2023-03-15T17:17:36.319Z,97076.38
2023-03-15T17:19:43.822Z,97083.69
2023-03-15T17:21:47.864Z,97085.34
2023-03-15T17:23:52.055Z,97083.25
2023-03-15T17:25:55.947Z,97095.31
2023-03-15T17:28:00.324Z,97091.22
2023-03-15T17:30:06.657Z,97094.16
2023-03-15T17:32:12.096Z,97104.78
2023-03-15T17:34:16.037Z,97097.91
2023-03-15T17:36:22.904Z,97096.09
2023-03-15T17:38:38.793Z,97103.94
2023-03-15T17:40:44.640Z,97091.91
2023-03-15T17:42:48.961Z,97096.78
2023-03-15T17:44:52.827Z,97098.91
2023-03-15T17:47:09.158Z,97097.28
2023-03-15T17:49:26.212Z,97104.97
2023-03-15T17:54:28.785Z,97105.09
2023-03-15T17:56:33.040Z,97105.91
2023-03-15T18:02:26.257Z,97109.53
2023-03-15T18:06:31.341Z,97110.34
2023-03-15T18:08:48.670Z,97122.88
2023-03-15T18:11:42.695Z,97132.06
2023-03-15T18:14:01.728Z,97119.50
2023-03-15T18:16:33.392Z,97111.19
2023-03-15T18:19:03.962Z,97113.03
2023-03-15T18:28:03.751Z,97106.75
2023-03-15T18:30:22.766Z,97111.06
2023-03-15T18:32:27.302Z,97112.00
2023-03-15T18:34:34.186Z,97112.16
2023-03-15T18:37:01.156Z,97107.75
2023-03-15T18:39:58.770Z,97113.94
2023-03-15T18:42:06.419Z,97117.28
2023-03-15T18:44:10.849Z,97121.84
2023-03-15T18:46:32.772Z,97120.66
2023-03-15T18:48:40.797Z,97121.63
2023-03-15T18:50:58.145Z,97120.31
2023-03-15T18:53:13.131Z,97121.47
2023-03-15T18:55:24.676Z,97125.88
2023-03-15T18:58:40.693Z,97124.84
2023-03-15T19:01:20.413Z,97122.41
2023-03-15T19:06:33.734Z,97105.81
2023-03-15T19:11:31.829Z,97101.41
2023-03-15T19:13:37.616Z,97106.63
2023-03-15T19:15:46.693Z,97107.25
2023-03-15T19:17:52.672Z,97102.34
2023-03-15T19:19:58.072Z,97104.97
2023-03-15T19:22:02.995Z,97099.38
2023-03-15T19:24:09.735Z,97118.13
2023-03-15T19:26:14.338Z,97127.78
2023-03-15T19:28:18.507Z,97119.13
2023-03-15T19:30:22.796Z,97124.50
2023-03-15T19:32:28.775Z,97121.09
2023-03-15T19:34:32.736Z,97120.25
2023-03-15T19:36:38.077Z,97123.84
2023-03-15T19:38:42.074Z,97122.84
2023-03-15T19:40:45.982Z,97123.03
2023-03-15T19:42:50.507Z,97118.63
2023-03-15T19:44:54.452Z,97133.47
2023-03-15T19:46:58.321Z,97129.22
2023-03-15T19:49:02.481Z,97133.63
2023-03-15T19:51:07.017Z,97135.44
2023-03-15T19:53:12.704Z,97138.84
2023-03-15T19:55:17.694Z,97134.63
2023-03-15T19:57:21.677Z,97134.63
2023-03-15T19:59:25.792Z,97135.44
2023-03-15T20:01:29.716Z,97144.59
2023-03-15T20:03:34.739Z,97143.94
2023-03-15T20:05:38.923Z,97142.28
2023-03-15T20:07:43.488Z,97139.00
2023-03-15T20:09:48.714Z,97137.22
2023-03-15T20:11:52.691Z,97135.59
2023-03-15T20:13:56.834Z,97133.78
2023-03-15T20:16:01.606Z,97135.72
2023-03-15T20:18:08.755Z,97137.38
2023-03-15T20:20:14.214Z,97136.56
2023-03-15T20:22:18.903Z,97136.56
2023-03-15T20:24:23.703Z,97139.19
2023-03-15T20:26:31.831Z,97141.13
2023-03-15T20:28:36.585Z,97150.59
2023-03-15T20:30:43.882Z,97148.97
2023-03-15T20:32:49.030Z,97145.50
2023-03-15T20:34:57.849Z,97142.09
2023-03-15T20:37:02.591Z,97149.94
2023-03-15T20:39:07.336Z,97159.56
2023-03-15T20:41:14.332Z,97153.53
2023-03-15T20:43:20.489Z,97156.28
2023-03-15T20:45:25.288Z,97159.72
2023-03-15T20:47:29.976Z,97156.28
2023-03-15T20:49:34.712Z,97157.09
2023-03-15T20:51:39.343Z,97157.09
2023-03-15T20:53:44.007Z,97154.50
2023-03-15T20:55:48.299Z,97152.53
2023-03-15T20:57:53.486Z,97145.84
2023-03-15T20:59:59.908Z,97152.03
2023-03-15T21:02:04.728Z,97150.91
2023-03-15T21:04:09.231Z,97146.78
2023-03-15T21:06:13.934Z,97143.03
2023-03-15T21:08:18.815Z,97150.81
2023-03-15T21:10:23.514Z,97145.69
2023-03-15T21:12:28.835Z,97154.81
2023-03-15T21:14:33.965Z,97157.09
2023-03-15T21:16:40.045Z,97146.66
2023-03-15T21:18:48.301Z,97148.44
2023-03-15T21:20:59.786Z,97163.31
2023-03-15T21:23:04.494Z,97182.53
2023-03-15T21:25:10.701Z,97174.34
2023-03-15T21:27:15.402Z,97151.53
2023-03-15T21:29:19.746Z,97140.41
2023-03-15T21:31:23.964Z,97140.66
2023-03-15T21:33:31.251Z,97141.06
2023-03-15T21:35:35.388Z,97145.13
2023-03-15T21:37:40.089Z,97145.69
2023-03-15T21:39:43.928Z,97149.97
2023-03-15T21:41:47.796Z,97157.38
2023-03-15T21:43:51.643Z,97151.78
2023-03-15T21:45:55.631Z,97147.72
2023-03-15T21:47:59.611Z,97147.03
2023-03-15T21:50:05.234Z,97145.09
2023-03-15T21:52:09.092Z,97142.06
2023-03-15T21:54:13.618Z,97139.59
2023-03-15T21:56:17.442Z,97154.94
2023-03-15T21:58:21.261Z,97159.47
2023-03-15T22:00:26.508Z,97161.78
2023-03-15T22:02:30.958Z,97163.56
2023-03-15T22:04:35.073Z,97156.56
2023-03-15T22:06:40.704Z,97157.41
2023-03-15T22:08:44.640Z,97159.16
2023-03-15T22:10:48.704Z,97158.06
2023-03-15T22:12:53.954Z,97166.72
2023-03-15T22:15:05.175Z,97159.69
2023-03-15T22:17:10.203Z,97163.94
2023-03-15T22:19:14.419Z,97160.34
2023-03-15T22:21:18.289Z,97159.53
2023-03-15T22:23:23.728Z,97154.31
2023-03-15T22:25:27.544Z,97154.31
2023-03-15T22:27:31.431Z,97161.16
2023-03-15T22:29:35.503Z,97157.75
2023-03-15T22:31:39.360Z,97162.00
2023-03-15T22:33:43.264Z,97152.53
2023-03-15T22:35:47.234Z,97153.34
2023-03-15T22:37:56.217Z,97154.19
2023-03-15T22:40:01.384Z,97150.72
2023-03-15T22:42:05.354Z,97153.34
2023-03-15T22:44:09.161Z,97161.16
2023-03-15T22:46:13.026Z,97161.16
2023-03-15T22:48:16.939Z,97168.19
2023-03-15T22:50:21.177Z,97173.25
2023-03-15T22:52:25.429Z,97169.00
2023-03-15T22:54:29.300Z,97173.25
2023-03-15T22:56:34.516Z,97175.19
2023-03-15T22:58:38.786Z,97181.09
2023-03-15T23:00:42.628Z,97179.44
2023-03-15T23:02:46.610Z,97170.78
2023-03-15T23:04:50.497Z,97174.22
2023-03-15T23:06:54.420Z,97175.06
2023-03-15T23:08:58.646Z,97163.78
2023-03-15T23:11:02.453Z,97163.78
2023-03-15T23:13:07.736Z,97161.16
2023-03-15T23:15:14.150Z,97166.38
2023-03-15T23:17:18.000Z,97163.78
2023-03-15T23:19:22.283Z,97164.63
2023-03-15T23:21:26.171Z,97161.16
2023-03-15T23:23:30.518Z,97159.53
2023-03-15T23:25:35.843Z,97172.59
2023-03-15T23:27:39.662Z,97166.38
2023-03-15T23:29:54.063Z,97170.78
2023-03-15T23:31:58.549Z,97169.16
2023-03-15T23:34:02.403Z,97169.97
2023-03-15T23:36:07.818Z,97179.44
2023-03-15T23:38:13.492Z,97162.16
2023-03-15T23:40:17.726Z,97167.38
2023-03-15T23:42:25.528Z,97161.34
2023-03-15T23:44:29.319Z,97159.53
2023-03-15T23:46:36.076Z,97163.94
2023-03-15T23:48:39.994Z,97160.50
2023-03-15T23:50:44.256Z,97155.28
2023-03-15T23:52:48.101Z,97150.91
2023-03-15T23:54:53.749Z,97154.31
2023-03-15T23:56:57.559Z,97159.53
2023-03-15T23:59:01.436Z,97158.72
